sensor_id;sensor_type;location;lat;lon;timestamp;P1;durP1;ratioP1;P2;durP2;ratioP2
52764;SDS011;38650;44.536;18.664;2023-02-24T00:01:21;32.25;;;28.50;;
52764;SDS011;38650;44.536;18.664;2023-02-24T00:03:59;32.10;;;28.30;;
52764;SDS011;38650;44.536;18.664;2023-02-24T00:06:25;35.55;;;31.73;;
52764;SDS011;38650;44.536;18.664;2023-02-24T00:09:00;39.30;;;33.90;;
52764;SDS011;38650;44.536;18.664;2023-02-24T00:11:33;50.67;;;36.97;;
52764;SDS011;38650;44.536;18.664;2023-02-24T00:14:06;49.55;;;40.38;;
52764;SDS011;38650;44.536;18.664;2023-02-24T00:16:33;41.38;;;35.63;;
52764;SDS011;38650;44.536;18.664;2023-02-24T00:19:01;45.92;;;36.30;;
52764;SDS011;38650;44.536;18.664;2023-02-24T00:21:31;47.92;;;37.83;;
52764;SDS011;38650;44.536;18.664;2023-02-24T00:23:58;34.08;;;30.08;;
52764;SDS011;38650;44.536;18.664;2023-02-24T00:26:24;33.47;;;28.20;;
52764;SDS011;38650;44.536;18.664;2023-02-24T00:28:50;36.47;;;29.67;;
52764;SDS011;38650;44.536;18.664;2023-02-24T00:31:17;40.78;;;34.33;;
52764;SDS011;38650;44.536;18.664;2023-02-24T00:33:44;45.35;;;37.95;;
52764;SDS011;38650;44.536;18.664;2023-02-24T00:36:12;43.47;;;34.60;;
52764;SDS011;38650;44.536;18.664;2023-02-24T00:38:48;43.53;;;34.53;;
52764;SDS011;38650;44.536;18.664;2023-02-24T00:41:25;33.70;;;28.98;;
52764;SDS011;38650;44.536;18.664;2023-02-24T00:43:53;36.47;;;30.13;;
52764;SDS011;38650;44.536;18.664;2023-02-24T00:46:30;34.85;;;29.25;;
52764;SDS011;38650;44.536;18.664;2023-02-24T00:49:00;31.75;;;27.60;;
52764;SDS011;38650;44.536;18.664;2023-02-24T00:51:29;34.88;;;30.42;;
52764;SDS011;38650;44.536;18.664;2023-02-24T00:53:59;35.70;;;29.70;;
52764;SDS011;38650;44.536;18.664;2023-02-24T00:56:26;42.05;;;32.42;;
52764;SDS011;38650;44.536;18.664;2023-02-24T00:58:53;34.15;;;28.02;;
52764;SDS011;38650;44.536;18.664;2023-02-24T01:01:21;32.35;;;27.35;;
52764;SDS011;38650;44.536;18.664;2023-02-24T01:03:50;28.77;;;25.17;;
52764;SDS011;38650;44.536;18.664;2023-02-24T01:06:20;30.20;;;26.10;;
52764;SDS011;38650;44.536;18.664;2023-02-24T01:08:48;26.83;;;23.92;;
52764;SDS011;38650;44.536;18.664;2023-02-24T01:11:17;28.88;;;25.45;;
52764;SDS011;38650;44.536;18.664;2023-02-24T01:14:06;39.10;;;31.13;;
52764;SDS011;38650;44.536;18.664;2023-02-24T01:16:34;35.03;;;28.58;;
52764;SDS011;38650;44.536;18.664;2023-02-24T01:19:00;36.55;;;30.75;;
52764;SDS011;38650;44.536;18.664;2023-02-24T01:21:27;39.13;;;32.58;;
52764;SDS011;38650;44.536;18.664;2023-02-24T01:23:53;32.42;;;26.70;;
52764;SDS011;38650;44.536;18.664;2023-02-24T01:26:19;31.05;;;25.73;;
52764;SDS011;38650;44.536;18.664;2023-02-24T01:28:45;40.00;;;31.98;;
52764;SDS011;38650;44.536;18.664;2023-02-24T01:31:12;35.63;;;31.60;;
52764;SDS011;38650;44.536;18.664;2023-02-24T01:33:40;34.00;;;28.23;;
52764;SDS011;38650;44.536;18.664;2023-02-24T01:36:19;34.45;;;30.17;;
52764;SDS011;38650;44.536;18.664;2023-02-24T01:38:52;43.95;;;35.20;;
52764;SDS011;38650;44.536;18.664;2023-02-24T01:41:19;36.03;;;30.80;;
52764;SDS011;38650;44.536;18.664;2023-02-24T01:46:37;39.58;;;32.63;;
52764;SDS011;38650;44.536;18.664;2023-02-24T01:51:59;47.83;;;36.33;;
52764;SDS011;38650;44.536;18.664;2023-02-24T01:54:32;36.95;;;32.78;;
52764;SDS011;38650;44.536;18.664;2023-02-24T01:57:07;31.38;;;27.95;;
52764;SDS011;38650;44.536;18.664;2023-02-24T02:02:07;43.72;;;33.58;;
52764;SDS011;38650;44.536;18.664;2023-02-24T02:04:41;34.00;;;29.02;;
52764;SDS011;38650;44.536;18.664;2023-02-24T02:07:19;32.08;;;27.65;;
52764;SDS011;38650;44.536;18.664;2023-02-24T02:09:46;27.70;;;24.65;;
52764;SDS011;38650;44.536;18.664;2023-02-24T02:12:12;36.50;;;27.70;;
52764;SDS011;38650;44.536;18.664;2023-02-24T02:14:39;38.63;;;31.00;;
52764;SDS011;38650;44.536;18.664;2023-02-24T02:30:46;29.65;;;24.45;;
52764;SDS011;38650;44.536;18.664;2023-02-24T02:33:17;31.95;;;28.42;;
52764;SDS011;38650;44.536;18.664;2023-02-24T02:41:23;28.15;;;24.27;;
52764;SDS011;38650;44.536;18.664;2023-02-24T02:49:19;57.60;;;28.52;;
52764;SDS011;38650;44.536;18.664;2023-02-24T02:51:55;40.90;;;24.23;;
52764;SDS011;38650;44.536;18.664;2023-02-24T02:54:35;28.83;;;24.90;;
52764;SDS011;38650;44.536;18.664;2023-02-24T02:57:24;36.15;;;30.23;;
52764;SDS011;38650;44.536;18.664;2023-02-24T03:00:01;37.72;;;32.67;;
52764;SDS011;38650;44.536;18.664;2023-02-24T03:02:39;36.90;;;31.40;;
52764;SDS011;38650;44.536;18.664;2023-02-24T03:05:09;37.25;;;31.23;;
52764;SDS011;38650;44.536;18.664;2023-02-24T03:07:42;34.45;;;26.67;;
52764;SDS011;38650;44.536;18.664;2023-02-24T03:10:14;78.07;;;30.30;;
52764;SDS011;38650;44.536;18.664;2023-02-24T03:12:52;167.15;;;42.88;;
52764;SDS011;38650;44.536;18.664;2023-02-24T03:15:21;91.10;;;33.38;;
52764;SDS011;38650;44.536;18.664;2023-02-24T03:17:52;91.28;;;31.30;;
52764;SDS011;38650;44.536;18.664;2023-02-24T03:20:23;44.28;;;21.88;;
52764;SDS011;38650;44.536;18.664;2023-02-24T03:23:12;25.70;;;19.67;;
52764;SDS011;38650;44.536;18.664;2023-02-24T03:25:43;24.00;;;19.05;;
52764;SDS011;38650;44.536;18.664;2023-02-24T03:31:08;26.52;;;21.60;;
52764;SDS011;38650;44.536;18.664;2023-02-24T03:33:48;25.27;;;21.27;;
52764;SDS011;38650;44.536;18.664;2023-02-24T03:36:24;26.77;;;21.77;;
52764;SDS011;38650;44.536;18.664;2023-02-24T03:38:52;25.50;;;21.45;;
52764;SDS011;38650;44.536;18.664;2023-02-24T03:41:17;50.42;;;24.63;;
52764;SDS011;38650;44.536;18.664;2023-02-24T03:43:44;19.58;;;17.10;;
52764;SDS011;38650;44.536;18.664;2023-02-24T03:46:14;32.95;;;18.92;;
52764;SDS011;38650;44.536;18.664;2023-02-24T03:48:45;36.47;;;19.42;;
52764;SDS011;38650;44.536;18.664;2023-02-24T03:51:21;46.28;;;26.08;;
52764;SDS011;38650;44.536;18.664;2023-02-24T04:01:55;43.15;;;25.23;;
52764;SDS011;38650;44.536;18.664;2023-02-24T04:04:51;24.95;;;21.75;;
52764;SDS011;38650;44.536;18.664;2023-02-24T04:10:10;23.73;;;20.08;;
52764;SDS011;38650;44.536;18.664;2023-02-24T04:12:52;21.73;;;18.08;;
52764;SDS011;38650;44.536;18.664;2023-02-24T04:15:43;22.80;;;19.58;;
52764;SDS011;38650;44.536;18.664;2023-02-24T04:20:45;25.83;;;19.10;;
52764;SDS011;38650;44.536;18.664;2023-02-24T04:23:17;24.77;;;20.13;;
52764;SDS011;38650;44.536;18.664;2023-02-24T04:25:48;19.83;;;16.25;;
52764;SDS011;38650;44.536;18.664;2023-02-24T04:28:16;26.65;;;21.92;;
52764;SDS011;38650;44.536;18.664;2023-02-24T04:30:46;30.08;;;23.08;;
52764;SDS011;38650;44.536;18.664;2023-02-24T04:33:14;39.78;;;32.53;;
52764;SDS011;38650;44.536;18.664;2023-02-24T04:35:42;33.40;;;26.33;;
52764;SDS011;38650;44.536;18.664;2023-02-24T04:38:09;27.92;;;23.45;;
52764;SDS011;38650;44.536;18.664;2023-02-24T04:40:35;26.80;;;22.25;;
52764;SDS011;38650;44.536;18.664;2023-02-24T04:43:01;31.80;;;24.27;;
52764;SDS011;38650;44.536;18.664;2023-02-24T04:45:28;22.42;;;19.92;;
52764;SDS011;38650;44.536;18.664;2023-02-24T04:47:56;22.20;;;17.80;;
52764;SDS011;38650;44.536;18.664;2023-02-24T04:50:30;21.80;;;16.98;;
52764;SDS011;38650;44.536;18.664;2023-02-24T04:53:01;24.92;;;21.48;;
52764;SDS011;38650;44.536;18.664;2023-02-24T04:58:02;17.23;;;15.15;;
52764;SDS011;38650;44.536;18.664;2023-02-24T05:00:28;18.00;;;14.38;;
52764;SDS011;38650;44.536;18.664;2023-02-24T05:03:03;17.73;;;14.48;;
52764;SDS011;38650;44.536;18.664;2023-02-24T05:05:30;22.55;;;19.05;;
52764;SDS011;38650;44.536;18.664;2023-02-24T05:08:01;22.77;;;17.40;;
52764;SDS011;38650;44.536;18.664;2023-02-24T05:10:27;21.58;;;18.02;;
52764;SDS011;38650;44.536;18.664;2023-02-24T05:13:02;16.50;;;13.68;;
52764;SDS011;38650;44.536;18.664;2023-02-24T05:15:28;19.15;;;16.95;;
52764;SDS011;38650;44.536;18.664;2023-02-24T05:17:57;18.67;;;15.13;;
52764;SDS011;38650;44.536;18.664;2023-02-24T05:20:49;15.20;;;12.50;;
52764;SDS011;38650;44.536;18.664;2023-02-24T05:23:38;17.70;;;14.10;;
52764;SDS011;38650;44.536;18.664;2023-02-24T05:26:08;15.98;;;13.85;;
52764;SDS011;38650;44.536;18.664;2023-02-24T05:28:39;17.65;;;14.82;;
52764;SDS011;38650;44.536;18.664;2023-02-24T05:31:16;18.75;;;14.70;;
52764;SDS011;38650;44.536;18.664;2023-02-24T05:33:48;13.32;;;11.32;;
52764;SDS011;38650;44.536;18.664;2023-02-24T05:36:18;15.48;;;12.52;;
52764;SDS011;38650;44.536;18.664;2023-02-24T05:38:46;13.52;;;12.23;;
52764;SDS011;38650;44.536;18.664;2023-02-24T05:41:16;16.38;;;14.52;;
52764;SDS011;38650;44.536;18.664;2023-02-24T05:43:43;17.35;;;13.93;;
52764;SDS011;38650;44.536;18.664;2023-02-24T05:46:17;13.95;;;11.60;;
52764;SDS011;38650;44.536;18.664;2023-02-24T05:48:52;18.25;;;15.40;;
52764;SDS011;38650;44.536;18.664;2023-02-24T05:51:21;19.30;;;16.15;;
52764;SDS011;38650;44.536;18.664;2023-02-24T05:53:51;16.27;;;14.45;;
52764;SDS011;38650;44.536;18.664;2023-02-24T05:56:20;17.88;;;13.75;;
52764;SDS011;38650;44.536;18.664;2023-02-24T05:58:49;16.70;;;14.40;;
52764;SDS011;38650;44.536;18.664;2023-02-24T06:01:25;17.38;;;15.27;;
52764;SDS011;38650;44.536;18.664;2023-02-24T06:03:54;18.13;;;15.18;;
52764;SDS011;38650;44.536;18.664;2023-02-24T06:06:20;17.92;;;16.02;;
52764;SDS011;38650;44.536;18.664;2023-02-24T06:08:47;17.85;;;14.50;;
52764;SDS011;38650;44.536;18.664;2023-02-24T06:11:17;15.88;;;13.50;;
52764;SDS011;38650;44.536;18.664;2023-02-24T06:13:44;16.63;;;14.85;;
52764;SDS011;38650;44.536;18.664;2023-02-24T06:16:12;15.02;;;13.07;;
52764;SDS011;38650;44.536;18.664;2023-02-24T06:18:39;17.70;;;15.82;;
52764;SDS011;38650;44.536;18.664;2023-02-24T06:21:06;19.40;;;16.77;;
52764;SDS011;38650;44.536;18.664;2023-02-24T06:23:32;20.27;;;16.58;;
52764;SDS011;38650;44.536;18.664;2023-02-24T06:26:01;16.88;;;15.07;;
52764;SDS011;38650;44.536;18.664;2023-02-24T06:28:28;14.32;;;12.93;;
52764;SDS011;38650;44.536;18.664;2023-02-24T06:30:55;14.80;;;13.30;;
52764;SDS011;38650;44.536;18.664;2023-02-24T06:33:21;14.15;;;12.73;;
52764;SDS011;38650;44.536;18.664;2023-02-24T06:35:50;15.05;;;13.48;;
52764;SDS011;38650;44.536;18.664;2023-02-24T06:38:17;22.55;;;19.10;;
52764;SDS011;38650;44.536;18.664;2023-02-24T06:40:43;13.13;;;11.73;;
52764;SDS011;38650;44.536;18.664;2023-02-24T06:43:11;16.58;;;13.63;;
52764;SDS011;38650;44.536;18.664;2023-02-24T06:45:37;15.68;;;13.60;;
52764;SDS011;38650;44.536;18.664;2023-02-24T06:48:03;25.92;;;21.92;;
52764;SDS011;38650;44.536;18.664;2023-02-24T06:50:29;17.13;;;15.27;;
52764;SDS011;38650;44.536;18.664;2023-02-24T06:52:56;14.68;;;13.10;;
52764;SDS011;38650;44.536;18.664;2023-02-24T06:55:25;19.42;;;17.33;;
52764;SDS011;38650;44.536;18.664;2023-02-24T06:57:56;19.23;;;17.17;;
52764;SDS011;38650;44.536;18.664;2023-02-24T07:00:24;26.08;;;21.75;;
52764;SDS011;38650;44.536;18.664;2023-02-24T07:03:01;24.40;;;20.55;;
52764;SDS011;38650;44.536;18.664;2023-02-24T07:05:42;31.63;;;26.25;;
52764;SDS011;38650;44.536;18.664;2023-02-24T07:08:22;32.28;;;26.30;;
52764;SDS011;38650;44.536;18.664;2023-02-24T07:10:55;31.20;;;25.77;;
52764;SDS011;38650;44.536;18.664;2023-02-24T07:13:22;38.30;;;31.77;;
52764;SDS011;38650;44.536;18.664;2023-02-24T07:15:49;38.58;;;30.77;;
52764;SDS011;38650;44.536;18.664;2023-02-24T07:18:16;31.35;;;26.40;;
52764;SDS011;38650;44.536;18.664;2023-02-24T07:20:42;30.20;;;25.45;;
52764;SDS011;38650;44.536;18.664;2023-02-24T07:23:10;26.58;;;23.73;;
52764;SDS011;38650;44.536;18.664;2023-02-24T07:25:39;27.08;;;23.10;;
52764;SDS011;38650;44.536;18.664;2023-02-24T07:28:07;22.45;;;19.45;;
52764;SDS011;38650;44.536;18.664;2023-02-24T07:30:35;22.98;;;19.63;;
52764;SDS011;38650;44.536;18.664;2023-02-24T07:33:03;20.75;;;18.63;;
52764;SDS011;38650;44.536;18.664;2023-02-24T07:35:29;18.80;;;16.80;;
52764;SDS011;38650;44.536;18.664;2023-02-24T07:38:01;21.45;;;17.95;;
52764;SDS011;38650;44.536;18.664;2023-02-24T07:40:30;18.08;;;16.17;;
52764;SDS011;38650;44.536;18.664;2023-02-24T07:42:58;16.92;;;15.13;;
52764;SDS011;38650;44.536;18.664;2023-02-24T07:45:25;17.85;;;15.95;;
52764;SDS011;38650;44.536;18.664;2023-02-24T07:47:51;19.33;;;17.20;;
52764;SDS011;38650;44.536;18.664;2023-02-24T07:50:17;19.83;;;17.75;;
52764;SDS011;38650;44.536;18.664;2023-02-24T07:52:46;20.98;;;18.67;;
52764;SDS011;38650;44.536;18.664;2023-02-24T07:55:12;20.98;;;18.75;;
52764;SDS011;38650;44.536;18.664;2023-02-24T07:57:43;18.23;;;16.35;;
52764;SDS011;38650;44.536;18.664;2023-02-24T08:00:12;18.38;;;16.58;;
52764;SDS011;38650;44.536;18.664;2023-02-24T08:02:53;20.15;;;18.05;;
52764;SDS011;38650;44.536;18.664;2023-02-24T08:05:24;18.98;;;17.08;;
52764;SDS011;38650;44.536;18.664;2023-02-24T08:07:50;18.88;;;16.95;;
52764;SDS011;38650;44.536;18.664;2023-02-24T08:10:21;17.00;;;15.32;;
52764;SDS011;38650;44.536;18.664;2023-02-24T08:12:50;15.90;;;14.35;;
52764;SDS011;38650;44.536;18.664;2023-02-24T08:15:28;15.40;;;13.95;;
52764;SDS011;38650;44.536;18.664;2023-02-24T08:17:58;15.35;;;13.85;;
52764;SDS011;38650;44.536;18.664;2023-02-24T08:20:26;14.38;;;13.05;;
52764;SDS011;38650;44.536;18.664;2023-02-24T08:23:00;13.57;;;12.27;;
52764;SDS011;38650;44.536;18.664;2023-02-24T08:25:30;15.73;;;14.20;;
52764;SDS011;38650;44.536;18.664;2023-02-24T08:27:59;16.25;;;14.57;;
52764;SDS011;38650;44.536;18.664;2023-02-24T08:30:30;16.48;;;14.82;;
52764;SDS011;38650;44.536;18.664;2023-02-24T08:33:07;18.85;;;16.85;;
52764;SDS011;38650;44.536;18.664;2023-02-24T08:35:35;21.45;;;19.35;;
52764;SDS011;38650;44.536;18.664;2023-02-24T08:38:04;24.73;;;22.20;;
52764;SDS011;38650;44.536;18.664;2023-02-24T08:40:34;24.80;;;22.30;;
52764;SDS011;38650;44.536;18.664;2023-02-24T08:43:11;27.42;;;22.75;;
52764;SDS011;38650;44.536;18.664;2023-02-24T08:45:53;28.17;;;22.95;;
52764;SDS011;38650;44.536;18.664;2023-02-24T08:48:34;25.98;;;23.25;;
52764;SDS011;38650;44.536;18.664;2023-02-24T08:51:04;23.95;;;21.50;;
52764;SDS011;38650;44.536;18.664;2023-02-24T08:53:31;23.95;;;21.25;;
52764;SDS011;38650;44.536;18.664;2023-02-24T08:55:58;21.92;;;19.50;;
52764;SDS011;38650;44.536;18.664;2023-02-24T08:58:34;19.88;;;17.02;;
52764;SDS011;38650;44.536;18.664;2023-02-24T09:01:05;18.52;;;16.73;;
52764;SDS011;38650;44.536;18.664;2023-02-24T09:03:42;17.65;;;15.82;;
52764;SDS011;38650;44.536;18.664;2023-02-24T09:06:13;18.40;;;16.48;;
52764;SDS011;38650;44.536;18.664;2023-02-24T09:08:42;18.08;;;16.17;;
52764;SDS011;38650;44.536;18.664;2023-02-24T09:11:11;19.60;;;16.98;;
52764;SDS011;38650;44.536;18.664;2023-02-24T09:13:39;16.52;;;14.82;;
52764;SDS011;38650;44.536;18.664;2023-02-24T09:16:18;17.55;;;14.05;;
52764;SDS011;38650;44.536;18.664;2023-02-24T09:22:09;12.05;;;10.85;;
52764;SDS011;38650;44.536;18.664;2023-02-24T09:24:55;11.35;;;10.13;;
52764;SDS011;38650;44.536;18.664;2023-02-24T09:30:32;10.48;;;9.35;;
52764;SDS011;38650;44.536;18.664;2023-02-24T09:33:25;11.05;;;9.93;;
52764;SDS011;38650;44.536;18.664;2023-02-24T09:38:38;12.75;;;11.50;;
52764;SDS011;38650;44.536;18.664;2023-02-24T09:44:45;12.43;;;11.18;;
52764;SDS011;38650;44.536;18.664;2023-02-24T09:50:29;11.98;;;10.77;;
52764;SDS011;38650;44.536;18.664;2023-02-24T09:53:11;11.77;;;10.20;;
52764;SDS011;38650;44.536;18.664;2023-02-24T09:55:48;11.65;;;10.55;;
52764;SDS011;38650;44.536;18.664;2023-02-24T10:06:39;9.98;;;8.77;;
52764;SDS011;38650;44.536;18.664;2023-02-24T10:11:49;9.35;;;8.30;;
52764;SDS011;38650;44.536;18.664;2023-02-24T10:16:46;9.05;;;8.13;;
52764;SDS011;38650;44.536;18.664;2023-02-24T10:19:35;8.77;;;7.88;;
52764;SDS011;38650;44.536;18.664;2023-02-24T10:22:17;10.15;;;7.70;;
52764;SDS011;38650;44.536;18.664;2023-02-24T10:25:08;11.95;;;7.80;;
52764;SDS011;38650;44.536;18.664;2023-02-24T10:30:44;11.88;;;9.38;;
52764;SDS011;38650;44.536;18.664;2023-02-24T10:33:19;8.60;;;7.70;;
52764;SDS011;38650;44.536;18.664;2023-02-24T10:35:51;11.55;;;8.65;;
52764;SDS011;38650;44.536;18.664;2023-02-24T10:38:41;9.32;;;8.13;;
52764;SDS011;38650;44.536;18.664;2023-02-24T10:41:11;8.25;;;7.47;;
52764;SDS011;38650;44.536;18.664;2023-02-24T10:43:39;10.40;;;7.10;;
52764;SDS011;38650;44.536;18.664;2023-02-24T10:46:20;8.57;;;7.65;;
52764;SDS011;38650;44.536;18.664;2023-02-24T10:48:57;7.45;;;6.75;;
52764;SDS011;38650;44.536;18.664;2023-02-24T10:51:29;9.32;;;6.90;;
52764;SDS011;38650;44.536;18.664;2023-02-24T10:54:03;7.05;;;6.35;;
52764;SDS011;38650;44.536;18.664;2023-02-24T10:56:57;9.50;;;6.93;;
52764;SDS011;38650;44.536;18.664;2023-02-24T10:59:57;9.43;;;6.70;;
52764;SDS011;38650;44.536;18.664;2023-02-24T11:02:33;6.88;;;6.20;;
52764;SDS011;38650;44.536;18.664;2023-02-24T11:05:24;6.97;;;6.28;;
52764;SDS011;38650;44.536;18.664;2023-02-24T11:08:28;7.45;;;6.65;;
52764;SDS011;38650;44.536;18.664;2023-02-24T11:11:09;8.30;;;6.28;;
52764;SDS011;38650;44.536;18.664;2023-02-24T11:13:53;5.63;;;5.10;;
52764;SDS011;38650;44.536;18.664;2023-02-24T11:16:42;6.32;;;4.97;;
52764;SDS011;38650;44.536;18.664;2023-02-24T11:19:30;6.43;;;5.30;;
52764;SDS011;38650;44.536;18.664;2023-02-24T11:21:58;6.18;;;5.22;;
52764;SDS011;38650;44.536;18.664;2023-02-24T11:24:26;6.72;;;5.22;;
52764;SDS011;38650;44.536;18.664;2023-02-24T11:26:52;5.95;;;5.10;;
52764;SDS011;38650;44.536;18.664;2023-02-24T11:35:10;6.10;;;5.25;;
52764;SDS011;38650;44.536;18.664;2023-02-24T11:37:57;6.65;;;4.57;;
52764;SDS011;38650;44.536;18.664;2023-02-24T11:40:29;4.35;;;3.80;;
52764;SDS011;38650;44.536;18.664;2023-02-24T11:43:04;8.10;;;4.47;;
52764;SDS011;38650;44.536;18.664;2023-02-24T11:48:10;7.75;;;4.57;;
52764;SDS011;38650;44.536;18.664;2023-02-24T11:50:51;5.18;;;4.35;;
52764;SDS011;38650;44.536;18.664;2023-02-24T11:58:36;5.68;;;3.92;;
52764;SDS011;38650;44.536;18.664;2023-02-24T12:01:19;8.02;;;4.53;;
52764;SDS011;38650;44.536;18.664;2023-02-24T12:07:12;4.20;;;3.80;;
52764;SDS011;38650;44.536;18.664;2023-02-24T12:09:54;6.10;;;4.28;;
52764;SDS011;38650;44.536;18.664;2023-02-24T12:15:20;5.43;;;4.10;;
52764;SDS011;38650;44.536;18.664;2023-02-24T12:21:02;5.38;;;3.95;;
52764;SDS011;38650;44.536;18.664;2023-02-24T12:23:46;6.65;;;4.20;;
52764;SDS011;38650;44.536;18.664;2023-02-24T12:37:23;6.20;;;4.90;;
52764;SDS011;38650;44.536;18.664;2023-02-24T12:40:17;6.15;;;5.30;;
52764;SDS011;38650;44.536;18.664;2023-02-24T12:45:50;7.70;;;5.57;;
52764;SDS011;38650;44.536;18.664;2023-02-24T12:54:19;8.70;;;5.57;;
52764;SDS011;38650;44.536;18.664;2023-02-24T12:59:29;5.50;;;4.95;;
52764;SDS011;38650;44.536;18.664;2023-02-24T13:02:05;13.20;;;5.40;;
52764;SDS011;38650;44.536;18.664;2023-02-24T13:10:25;6.60;;;5.57;;
52764;SDS011;38650;44.536;18.664;2023-02-24T13:23:39;13.38;;;10.05;;
52764;SDS011;38650;44.536;18.664;2023-02-24T13:26:06;10.57;;;8.80;;
52764;SDS011;38650;44.536;18.664;2023-02-24T13:28:33;10.25;;;7.47;;
52764;SDS011;38650;44.536;18.664;2023-02-24T13:33:35;7.70;;;6.20;;
52764;SDS011;38650;44.536;18.664;2023-02-24T13:36:18;10.70;;;5.95;;
52764;SDS011;38650;44.536;18.664;2023-02-24T13:38:49;12.02;;;6.90;;
52764;SDS011;38650;44.536;18.664;2023-02-24T13:41:37;8.60;;;6.07;;
52764;SDS011;38650;44.536;18.664;2023-02-24T13:44:21;6.68;;;5.20;;
52764;SDS011;38650;44.536;18.664;2023-02-24T13:57:40;8.45;;;4.32;;
52764;SDS011;38650;44.536;18.664;2023-02-24T14:00:22;5.55;;;3.88;;
52764;SDS011;38650;44.536;18.664;2023-02-24T14:03:10;8.30;;;4.35;;
52764;SDS011;38650;44.536;18.664;2023-02-24T14:05:42;8.55;;;4.60;;
52764;SDS011;38650;44.536;18.664;2023-02-24T14:08:11;8.55;;;5.10;;
52764;SDS011;38650;44.536;18.664;2023-02-24T14:10:45;13.50;;;7.50;;
52764;SDS011;38650;44.536;18.664;2023-02-24T14:13:21;15.75;;;6.13;;
52764;SDS011;38650;44.536;18.664;2023-02-24T14:15:52;10.73;;;6.55;;
52764;SDS011;38650;44.536;18.664;2023-02-24T14:18:23;8.95;;;6.07;;
52764;SDS011;38650;44.536;18.664;2023-02-24T14:20:51;8.38;;;5.78;;
52764;SDS011;38650;44.536;18.664;2023-02-24T14:23:33;8.27;;;4.88;;
52764;SDS011;38650;44.536;18.664;2023-02-24T14:26:00;7.13;;;4.97;;
52764;SDS011;38650;44.536;18.664;2023-02-24T14:28:35;6.70;;;5.00;;
52764;SDS011;38650;44.536;18.664;2023-02-24T14:31:07;9.70;;;5.25;;
52764;SDS011;38650;44.536;18.664;2023-02-24T14:33:38;8.77;;;5.15;;
52764;SDS011;38650;44.536;18.664;2023-02-24T14:36:05;5.32;;;4.00;;
52764;SDS011;38650;44.536;18.664;2023-02-24T14:38:39;8.00;;;6.20;;
52764;SDS011;38650;44.536;18.664;2023-02-24T14:41:06;7.18;;;5.00;;
52764;SDS011;38650;44.536;18.664;2023-02-24T14:43:42;8.63;;;4.50;;
52764;SDS011;38650;44.536;18.664;2023-02-24T14:46:07;12.20;;;7.05;;
52764;SDS011;38650;44.536;18.664;2023-02-24T14:48:33;7.38;;;5.55;;
52764;SDS011;38650;44.536;18.664;2023-02-24T14:51:00;9.13;;;5.85;;
52764;SDS011;38650;44.536;18.664;2023-02-24T14:53:33;11.02;;;6.10;;
52764;SDS011;38650;44.536;18.664;2023-02-24T14:56:02;8.80;;;6.20;;
52764;SDS011;38650;44.536;18.664;2023-02-24T14:58:41;13.55;;;7.03;;
52764;SDS011;38650;44.536;18.664;2023-02-24T15:01:51;9.35;;;5.80;;
52764;SDS011;38650;44.536;18.664;2023-02-24T15:04:54;11.70;;;5.30;;
52764;SDS011;38650;44.536;18.664;2023-02-24T15:07:42;8.52;;;5.28;;
52764;SDS011;38650;44.536;18.664;2023-02-24T15:10:00;18.60;;;11.95;;
52764;SDS011;38650;44.536;18.664;2023-02-24T15:12:44;13.50;;;9.95;;
52764;SDS011;38650;44.536;18.664;2023-02-24T15:15:20;9.70;;;5.95;;
52764;SDS011;38650;44.536;18.664;2023-02-24T15:18:00;23.55;;;15.85;;
52764;SDS011;38650;44.536;18.664;2023-02-24T15:20:33;10.65;;;7.75;;
52764;SDS011;38650;44.536;18.664;2023-02-24T15:23:01;12.55;;;7.70;;
52764;SDS011;38650;44.536;18.664;2023-02-24T15:25:28;13.13;;;7.07;;
52764;SDS011;38650;44.536;18.664;2023-02-24T15:28:05;11.20;;;6.80;;
52764;SDS011;38650;44.536;18.664;2023-02-24T15:30:58;9.48;;;6.32;;
52764;SDS011;38650;44.536;18.664;2023-02-24T15:33:25;9.07;;;5.95;;
52764;SDS011;38650;44.536;18.664;2023-02-24T15:35:57;17.52;;;11.23;;
52764;SDS011;38650;44.536;18.664;2023-02-24T15:38:34;18.98;;;12.63;;
52764;SDS011;38650;44.536;18.664;2023-02-24T15:41:03;20.20;;;15.15;;
52764;SDS011;38650;44.536;18.664;2023-02-24T15:43:50;18.45;;;14.35;;
52764;SDS011;38650;44.536;18.664;2023-02-24T15:48:46;25.38;;;18.77;;
52764;SDS011;38650;44.536;18.664;2023-02-24T15:51:20;20.30;;;13.77;;
52764;SDS011;38650;44.536;18.664;2023-02-24T15:53:47;15.40;;;10.77;;
52764;SDS011;38650;44.536;18.664;2023-02-24T15:56:13;11.52;;;8.75;;
52764;SDS011;38650;44.536;18.664;2023-02-24T15:58:41;11.77;;;9.60;;
52764;SDS011;38650;44.536;18.664;2023-02-24T16:01:08;12.23;;;8.63;;
52764;SDS011;38650;44.536;18.664;2023-02-24T16:03:37;18.38;;;15.63;;
52764;SDS011;38650;44.536;18.664;2023-02-24T16:06:02;14.80;;;10.88;;
52764;SDS011;38650;44.536;18.664;2023-02-24T16:08:29;12.70;;;8.63;;
52764;SDS011;38650;44.536;18.664;2023-02-24T16:10:55;13.32;;;10.23;;
52764;SDS011;38650;44.536;18.664;2023-02-24T16:13:22;16.83;;;12.80;;
52764;SDS011;38650;44.536;18.664;2023-02-24T16:15:50;18.70;;;13.50;;
52764;SDS011;38650;44.536;18.664;2023-02-24T16:18:17;33.35;;;24.63;;
52764;SDS011;38650;44.536;18.664;2023-02-24T16:20:46;28.67;;;22.10;;
52764;SDS011;38650;44.536;18.664;2023-02-24T16:23:18;26.77;;;20.27;;
52764;SDS011;38650;44.536;18.664;2023-02-24T16:25:45;26.05;;;19.73;;
52764;SDS011;38650;44.536;18.664;2023-02-24T16:28:14;27.15;;;22.55;;
52764;SDS011;38650;44.536;18.664;2023-02-24T16:30:41;38.53;;;27.30;;
52764;SDS011;38650;44.536;18.664;2023-02-24T16:33:09;28.65;;;22.17;;
52764;SDS011;38650;44.536;18.664;2023-02-24T16:35:37;24.25;;;18.35;;
52764;SDS011;38650;44.536;18.664;2023-02-24T16:38:05;21.83;;;13.07;;
52764;SDS011;38650;44.536;18.664;2023-02-24T16:40:33;15.57;;;12.68;;
52764;SDS011;38650;44.536;18.664;2023-02-24T16:43:02;12.23;;;9.13;;
52764;SDS011;38650;44.536;18.664;2023-02-24T16:45:28;20.33;;;14.70;;
52764;SDS011;38650;44.536;18.664;2023-02-24T16:47:58;26.58;;;18.88;;
52764;SDS011;38650;44.536;18.664;2023-02-24T16:50:25;19.50;;;14.65;;
52764;SDS011;38650;44.536;18.664;2023-02-24T16:53:00;34.58;;;26.27;;
52764;SDS011;38650;44.536;18.664;2023-02-24T16:55:26;39.60;;;33.00;;
52764;SDS011;38650;44.536;18.664;2023-02-24T16:57:52;46.85;;;38.95;;
52764;SDS011;38650;44.536;18.664;2023-02-24T17:00:17;48.92;;;39.15;;
52764;SDS011;38650;44.536;18.664;2023-02-24T17:02:47;44.35;;;36.05;;
52764;SDS011;38650;44.536;18.664;2023-02-24T17:05:18;46.80;;;32.40;;
52764;SDS011;38650;44.536;18.664;2023-02-24T17:07:47;39.33;;;28.67;;
52764;SDS011;38650;44.536;18.664;2023-02-24T17:10:13;37.20;;;29.67;;
52764;SDS011;38650;44.536;18.664;2023-02-24T17:12:40;33.63;;;24.77;;
52764;SDS011;38650;44.536;18.664;2023-02-24T17:15:06;25.55;;;18.83;;
52764;SDS011;38650;44.536;18.664;2023-02-24T17:17:36;35.22;;;27.58;;
52764;SDS011;38650;44.536;18.664;2023-02-24T17:20:02;36.90;;;27.63;;
52764;SDS011;38650;44.536;18.664;2023-02-24T17:22:28;40.25;;;29.02;;
52764;SDS011;38650;44.536;18.664;2023-02-24T17:24:54;32.97;;;26.23;;
52764;SDS011;38650;44.536;18.664;2023-02-24T17:27:19;28.55;;;21.33;;